Time;durP1;ratioP1;P1;durP2;ratioP2;P2;SDS_P1;SDS_P2;PMS_P1;PMS_P2;Temp;Humidity;BMP_temperature;BMP_pressure;BME280_temperature;BME280_humidity;BME280_pressure;Samples;Min_cycle;Max_cycle;Signal;HPM_P1;HPM_P2
2021/10/13 00:01:35;;;;;;;5.83;5.33;;;6.60;99.90;;;;;;5019116;28;21249;-65
2021/10/13 00:04:01;;;;;;;5.87;5.30;;;6.50;99.90;;;;;;5021023;28;20251;-65
2021/10/13 00:06:29;;;;;;;6.60;5.90;;;6.50;99.90;;;;;;5022583;28;20193;-65
2021/10/13 00:08:57;;;;;;;5.40;5.00;;;6.50;99.90;;;;;;5020724;28;20219;-64
2021/10/13 00:11:22;;;;;;;6.27;5.67;;;6.50;99.90;;;;;;5022649;28;20641;-65
2021/10/13 00:13:48;;;;;;;5.87;5.37;;;6.50;99.90;;;;;;5026322;28;20643;-65
2021/10/13 00:16:14;;;;;;;6.63;5.93;;;6.40;99.90;;;;;;5026339;28;20284;-65
2021/10/13 00:18:42;;;;;;;6.10;5.60;;;6.50;99.90;;;;;;5023762;28;20188;-65
2021/10/13 00:21:08;;;;;;;6.20;5.70;;;6.50;99.90;;;;;;5023897;28;20650;-64
2021/10/13 00:23:34;;;;;;;6.17;5.57;;;6.50;99.90;;;;;;5023310;28;20620;-65
2021/10/13 00:25:59;;;;;;;6.77;6.00;;;6.40;99.90;;;;;;5021598;28;20275;-65
2021/10/13 00:28:27;;;;;;;5.80;5.20;;;6.40;99.90;;;;;;5021657;28;20653;-64
2021/10/13 00:30:53;;;;;;;6.17;5.63;;;6.40;99.90;;;;;;5022477;28;20683;-65
2021/10/13 00:33:21;;;;;;;6.47;5.87;;;6.50;99.90;;;;;;5019581;28;20668;-65
2021/10/13 00:35:47;;;;;;;6.70;6.03;;;6.40;99.90;;;;;;5021501;28;20670;-64
2021/10/13 00:38:18;;;;;;;5.70;5.20;;;6.40;99.90;;;;;;5020882;28;20715;-65
2021/10/13 00:40:43;;;;;;;5.63;5.13;;;6.30;99.90;;;;;;5021280;28;20236;-66
2021/10/13 00:43:19;;;;;;;6.13;5.57;;;6.30;99.90;;;;;;5019858;28;20726;-65
2021/10/13 00:45:45;;;;;;;6.07;5.47;;;6.30;99.90;;;;;;5021551;28;20592;-64
2021/10/13 00:48:10;;;;;;;5.70;5.20;;;6.30;99.90;;;;;;5019534;28;20612;-65
2021/10/13 00:50:37;;;;;;;6.37;5.77;;;6.30;99.90;;;;;;5020369;28;20314;-65
2021/10/13 00:53:05;;;;;;;6.53;5.70;;;6.30;99.90;;;;;;5021168;28;20196;-65
2021/10/13 00:55:33;;;;;;;5.60;5.10;;;6.20;99.90;;;;;;5020619;28;20698;-65
2021/10/13 00:58:01;;;;;;;6.00;5.40;;;6.20;99.90;;;;;;5022875;28;20619;-65
2021/10/13 01:00:27;;;;;;;5.03;4.63;;;6.20;99.90;;;;;;5021309;28;20648;-65
2021/10/13 01:03:11;;;;;;;6.10;5.50;;;6.20;99.90;;;;;;5018638;28;20667;-65
2021/10/13 01:05:58;;;;;;;6.57;5.60;;;6.20;99.90;;;;;;5021238;28;20228;-64
2021/10/13 01:09:06;;;;;;;6.73;5.27;;;6.20;99.90;;;;;;5021452;28;20616;-65
2021/10/13 01:11:41;;;;;;;5.53;5.00;;;6.20;99.90;;;;;;5021461;28;20754;-65
2021/10/13 01:14:21;;;;;;;6.33;5.73;;;6.20;99.90;;;;;;5022242;28;20632;-65
2021/10/13 01:17:10;;;;;;;5.80;5.30;;;6.20;99.90;;;;;;5022601;28;20615;-64
2021/10/13 01:19:47;;;;;;;6.10;5.50;;;6.10;99.90;;;;;;5021502;28;20722;-65
2021/10/13 01:22:25;;;;;;;5.80;5.20;;;6.10;99.90;;;;;;5022049;28;20671;-66
2021/10/13 01:25:10;;;;;;;6.70;6.10;;;6.00;99.90;;;;;;5021669;28;21069;-65
2021/10/13 01:27:56;;;;;;;6.40;5.43;;;6.00;99.90;;;;;;5020249;28;20623;-65
2021/10/13 01:30:24;;;;;;;6.17;5.57;;;6.00;99.90;;;;;;5020752;28;21259;-65
2021/10/13 01:33:03;;;;;;;6.37;5.87;;;6.00;99.90;;;;;;5020921;28;20702;-66
2021/10/13 01:35:31;;;;;;;5.97;5.40;;;6.00;99.90;;;;;;5020362;28;20648;-65
2021/10/13 01:38:01;;;;;;;6.67;5.60;;;6.00;99.90;;;;;;5019039;28;20620;-65
2021/10/13 01:40:31;;;;;;;5.87;5.27;;;6.00;99.90;;;;;;5020967;28;20603;-65
2021/10/13 01:42:59;;;;;;;5.90;5.40;;;6.00;99.90;;;;;;5021182;28;20608;-64
2021/10/13 01:45:26;;;;;;;6.13;5.53;;;6.10;99.90;;;;;;5017869;28;20723;-65
2021/10/13 01:47:53;;;;;;;7.07;5.83;;;5.90;99.90;;;;;;5018617;28;21198;-65
2021/10/13 01:50:19;;;;;;;6.70;5.80;;;6.10;99.90;;;;;;5019454;28;21023;-65
2021/10/13 01:52:50;;;;;;;6.50;5.90;;;5.90;99.90;;;;;;5020857;28;20605;-64
2021/10/13 01:55:21;;;;;;;7.17;6.10;;;6.00;99.90;;;;;;5018463;28;20656;-64
2021/10/13 01:57:50;;;;;;;6.10;5.47;;;5.90;99.90;;;;;;5020125;28;20655;-65
2021/10/13 02:00:17;;;;;;;5.77;5.20;;;5.90;99.90;;;;;;5023825;28;20604;-65
2021/10/13 02:02:47;;;;;;;6.33;5.50;;;5.80;99.90;;;;;;5016620;28;20734;-64
2021/10/13 02:05:23;;;;;;;5.93;5.43;;;5.90;99.90;;;;;;5017967;28;20654;-65
2021/10/13 02:07:49;;;;;;;5.90;5.23;;;5.90;99.90;;;;;;5019474;28;20666;-64
2021/10/13 02:10:18;;;;;;;6.67;5.97;;;5.90;99.90;;;;;;5019601;28;20607;-65
2021/10/13 02:12:47;;;;;;;6.10;5.50;;;5.90;99.90;;;;;;5019199;28;20608;-65
2021/10/13 02:15:15;;;;;;;6.13;5.53;;;5.80;99.90;;;;;;5020037;28;20678;-65
2021/10/13 02:17:45;;;;;;;6.63;6.03;;;5.80;99.90;;;;;;5021250;28;20622;-64
2021/10/13 02:20:11;;;;;;;6.40;5.80;;;5.80;99.90;;;;;;5019315;28;20626;-65
2021/10/13 02:22:43;;;;;;;5.90;5.40;;;5.70;99.90;;;;;;5019666;28;20647;-64
2021/10/13 02:25:09;;;;;;;5.70;5.00;;;5.70;99.90;;;;;;5019513;28;20227;-65
2021/10/13 02:27:53;;;;;;;6.47;5.80;;;5.70;99.90;;;;;;5018473;28;20609;-64
2021/10/13 02:30:19;;;;;;;5.97;5.40;;;5.70;99.90;;;;;;5018540;28;20624;-65
2021/10/13 02:32:44;;;;;;;5.57;5.07;;;5.60;99.90;;;;;;5020256;28;20603;-65
2021/10/13 02:35:10;;;;;;;5.60;5.10;;;5.70;99.90;;;;;;5018497;28;20637;-66
2021/10/13 02:37:36;;;;;;;5.90;5.40;;;5.60;99.90;;;;;;5017088;28;20182;-65
2021/10/13 02:40:03;;;;;;;6.53;5.93;;;5.60;99.90;;;;;;5026475;28;20185;-67
2021/10/13 02:42:29;;;;;;;5.63;5.13;;;5.60;99.90;;;;;;5019733;28;20216;-64
2021/10/13 02:44:54;;;;;;;5.47;4.97;;;5.60;99.90;;;;;;5019449;28;21280;-64
2021/10/13 02:47:50;;;;;;;6.07;5.40;;;5.60;99.90;;;;;;5018616;28;20220;-65
2021/10/13 02:50:35;;;;;;;6.17;5.57;;;5.60;99.90;;;;;;5018827;28;20209;-64
2021/10/13 02:53:06;;;;;;;6.30;5.70;;;5.40;99.90;;;;;;5017736;28;20675;-64
2021/10/13 02:55:37;;;;;;;5.77;5.20;;;5.60;99.90;;;;;;5018946;28;21089;-65
2021/10/13 02:58:18;;;;;;;6.57;5.67;;;5.60;99.90;;;;;;5020225;28;20573;-64
2021/10/13 03:00:48;;;;;;;5.63;5.13;;;5.60;99.90;;;;;;5019448;28;20673;-65
2021/10/13 03:03:22;;;;;;;7.07;6.47;;;5.50;99.90;;;;;;5014776;28;20584;-65
2021/10/13 03:05:50;;;;;;;5.80;5.30;;;5.50;99.90;;;;;;5017993;28;20612;-64
2021/10/13 03:08:20;;;;;;;6.60;6.00;;;5.50;99.90;;;;;;5019183;28;20607;-65
2021/10/13 03:10:49;;;;;;;5.63;5.10;;;5.40;99.90;;;;;;5027792;28;20727;-64
2021/10/13 03:13:20;;;;;;;6.30;5.70;;;5.40;99.90;;;;;;5022777;28;22432;-65
2021/10/13 03:15:50;;;;;;;6.23;5.73;;;5.40;99.90;;;;;;5022763;28;20646;-65
2021/10/13 03:18:16;;;;;;;5.93;5.43;;;5.40;99.90;;;;;;5022858;28;20838;-65
2021/10/13 03:20:45;;;;;;;5.67;5.17;;;5.40;99.90;;;;;;5023124;28;20628;-64
2021/10/13 03:23:13;;;;;;;6.20;5.70;;;5.40;99.90;;;;;;5020210;28;20627;-65
2021/10/13 03:25:38;;;;;;;6.60;5.97;;;5.40;99.90;;;;;;5022829;28;20642;-64
2021/10/13 03:28:04;;;;;;;6.37;5.73;;;5.40;99.90;;;;;;5022774;28;21170;-64
2021/10/13 03:30:40;;;;;;;6.13;5.63;;;5.40;99.90;;;;;;5022154;28;20215;-64
2021/10/13 03:33:08;;;;;;;6.23;5.63;;;5.30;99.90;;;;;;5021972;28;20239;-64
2021/10/13 03:35:34;;;;;;;6.97;6.30;;;5.30;99.90;;;;;;5022324;28;20680;-65
2021/10/13 03:38:02;;;;;;;6.80;6.20;;;5.30;99.90;;;;;;5021893;28;20987;-65
2021/10/13 03:40:29;;;;;;;6.40;5.90;;;5.30;99.90;;;;;;5021404;28;20280;-64
2021/10/13 03:42:55;;;;;;;6.70;6.10;;;5.20;99.90;;;;;;5021492;28;20638;-64
2021/10/13 03:45:22;;;;;;;5.87;5.37;;;5.30;99.90;;;;;;5022168;28;20722;-64
2021/10/13 03:47:51;;;;;;;6.73;6.10;;;5.30;99.90;;;;;;5021545;28;21067;-64
2021/10/13 03:50:19;;;;;;;6.50;5.90;;;5.30;99.90;;;;;;5022094;28;20627;-65
2021/10/13 03:52:45;;;;;;;5.70;5.20;;;5.30;99.90;;;;;;5022644;28;20634;-65
2021/10/13 03:55:14;;;;;;;6.00;5.50;;;5.30;99.90;;;;;;5022547;28;20651;-65
2021/10/13 03:57:41;;;;;;;6.97;6.27;;;5.30;99.90;;;;;;5019345;28;21251;-65
2021/10/13 04:00:12;;;;;;;7.27;5.80;;;5.20;99.90;;;;;;5022220;28;20607;-65
2021/10/13 04:02:39;;;;;;;6.00;5.50;;;5.30;99.90;;;;;;5022407;28;21186;-69
2021/10/13 04:05:06;;;;;;;6.57;5.97;;;5.20;99.90;;;;;;5016587;28;20641;-65
2021/10/13 04:07:34;;;;;;;7.27;6.57;;;5.20;99.90;;;;;;5022617;28;20660;-65
2021/10/13 04:10:01;;;;;;;6.87;6.27;;;5.20;99.90;;;;;;5022131;28;20751;-65
2021/10/13 04:12:28;;;;;;;6.00;5.30;;;5.20;99.90;;;;;;5021020;28;20642;-65
2021/10/13 04:14:56;;;;;;;6.00;5.50;;;5.20;99.90;;;;;;5019981;28;20647;-65
2021/10/13 04:17:24;;;;;;;6.53;5.63;;;5.10;99.90;;;;;;5020625;28;20599;-66
2021/10/13 04:19:50;;;;;;;5.93;5.43;;;5.20;99.90;;;;;;5020155;28;20650;-66
2021/10/13 04:22:18;;;;;;;5.37;4.90;;;5.20;99.90;;;;;;5018761;28;20778;-65
2021/10/13 04:24:46;;;;;;;5.97;5.47;;;5.10;99.90;;;;;;5018962;28;20709;-66
2021/10/13 04:27:12;;;;;;;7.03;6.20;;;5.10;99.90;;;;;;5020795;28;20613;-66
2021/10/13 04:29:37;;;;;;;6.70;6.00;;;5.10;99.90;;;;;;5020516;28;21187;-65
2021/10/13 04:32:05;;;;;;;7.70;7.00;;;5.00;99.90;;;;;;5018814;28;20198;-64
2021/10/13 04:34:38;;;;;;;7.33;6.30;;;5.10;99.90;;;;;;5020927;28;20270;-66
2021/10/13 04:37:06;;;;;;;6.17;5.67;;;5.00;99.90;;;;;;5020692;28;21302;-64
2021/10/13 04:39:34;;;;;;;6.90;6.30;;;5.00;99.90;;;;;;5027124;28;20608;-65
2021/10/13 04:42:02;;;;;;;5.83;5.30;;;5.00;99.90;;;;;;5026577;28;20663;-64
2021/10/13 04:44:28;;;;;;;6.70;6.10;;;5.00;99.90;;;;;;5020235;28;20633;-65
2021/10/13 04:46:53;;;;;;;6.63;6.03;;;4.90;99.90;;;;;;5020985;28;20738;-65
2021/10/13 04:49:21;;;;;;;6.67;5.97;;;4.90;99.90;;;;;;5020908;28;20556;-65
2021/10/13 04:51:49;;;;;;;6.80;6.13;;;4.90;99.90;;;;;;5020525;28;20224;-65
2021/10/13 04:54:14;;;;;;;7.03;6.33;;;5.00;99.90;;;;;;5019956;28;20627;-66
2021/10/13 04:56:40;;;;;;;6.20;5.60;;;5.00;99.90;;;;;;5020956;28;20661;-64
2021/10/13 04:59:06;;;;;;;7.67;6.93;;;4.90;99.90;;;;;;5019767;28;20573;-65
2021/10/13 05:01:31;;;;;;;6.80;6.20;;;4.90;99.90;;;;;;5019806;28;20288;-66
2021/10/13 05:03:57;;;;;;;7.80;6.40;;;4.90;99.90;;;;;;5021198;28;20732;-66
2021/10/13 05:06:22;;;;;;;6.30;5.70;;;4.80;99.90;;;;;;5018074;28;20189;-64
2021/10/13 05:08:48;;;;;;;6.47;5.87;;;4.80;99.90;;;;;;5020940;28;20183;-64
2021/10/13 05:11:16;;;;;;;6.73;6.13;;;4.80;99.90;;;;;;5020770;28;20228;-65
2021/10/13 05:13:44;;;;;;;7.30;6.60;;;4.80;99.90;;;;;;5021597;28;20243;-65
2021/10/13 05:16:09;;;;;;;7.13;6.40;;;4.80;99.90;;;;;;5019468;28;21049;-65
2021/10/13 05:18:37;;;;;;;6.63;6.03;;;4.80;99.90;;;;;;5019287;28;20608;-66
2021/10/13 05:21:06;;;;;;;6.90;6.30;;;4.80;99.90;;;;;;5019746;28;20267;-65
2021/10/13 05:23:32;;;;;;;7.40;6.57;;;4.80;99.90;;;;;;5015714;28;20980;-65
2021/10/13 05:25:57;;;;;;;7.37;6.67;;;4.80;99.90;;;;;;5020136;28;20703;-66
2021/10/13 05:28:23;;;;;;;7.10;6.40;;;4.80;99.90;;;;;;5019985;28;20192;-65
2021/10/13 05:30:54;;;;;;;7.10;6.50;;;4.80;99.90;;;;;;5020086;28;20251;-64
2021/10/13 05:33:19;;;;;;;6.47;5.87;;;4.80;99.90;;;;;;5020593;28;20224;-65
2021/10/13 05:35:45;;;;;;;7.20;6.60;;;4.70;99.90;;;;;;5019141;28;21282;-64
2021/10/13 05:38:10;;;;;;;7.67;6.60;;;4.70;99.90;;;;;;5020869;28;20195;-64
2021/10/13 05:40:39;;;;;;;6.17;5.63;;;4.70;99.90;;;;;;5018140;28;20267;-65
2021/10/13 05:43:05;;;;;;;7.30;6.60;;;4.70;99.90;;;;;;5019581;28;20676;-65
2021/10/13 05:45:33;;;;;;;7.30;6.60;;;4.70;99.90;;;;;;5020145;28;20686;-65
2021/10/13 05:47:58;;;;;;;6.53;5.93;;;4.70;99.90;;;;;;5018472;28;20185;-65
2021/10/13 05:50:24;;;;;;;7.50;6.83;;;4.70;99.90;;;;;;5012859;28;20613;-64
2021/10/13 05:52:52;;;;;;;7.10;6.40;;;4.70;99.90;;;;;;5019897;28;20239;-65
2021/10/13 05:55:20;;;;;;;7.17;6.47;;;4.70;99.90;;;;;;5018806;28;20347;-66
2021/10/13 05:57:45;;;;;;;7.73;6.93;;;4.60;99.90;;;;;;5020191;28;20687;-65
2021/10/13 06:00:12;;;;;;;7.50;6.80;;;4.60;99.90;;;;;;5016479;28;20696;-65
2021/10/13 06:02:41;;;;;;;7.00;6.30;;;4.60;99.90;;;;;;5019182;28;20214;-65
2021/10/13 06:05:07;;;;;;;7.13;6.53;;;4.60;99.90;;;;;;5019510;28;20640;-65
2021/10/13 06:07:32;;;;;;;6.97;6.37;;;4.60;99.90;;;;;;5016460;28;20697;-65
2021/10/13 06:10:03;;;;;;;7.70;6.90;;;4.60;99.90;;;;;;5018898;28;20976;-65
2021/10/13 06:12:28;;;;;;;7.70;6.73;;;4.60;99.90;;;;;;5019858;28;20208;-65
2021/10/13 06:14:56;;;;;;;7.83;7.13;;;4.60;99.90;;;;;;5018551;28;20648;-65
2021/10/13 06:17:24;;;;;;;7.80;7.00;;;4.60;99.90;;;;;;5018644;28;20564;-65
2021/10/13 06:19:52;;;;;;;9.23;7.07;;;4.60;99.90;;;;;;5023977;28;20628;-66
2021/10/13 06:22:18;;;;;;;8.00;7.20;;;4.60;99.90;;;;;;5021131;28;20658;-65
2021/10/13 06:24:45;;;;;;;7.60;6.90;;;4.60;99.90;;;;;;5019867;28;21016;-65
2021/10/13 06:27:11;;;;;;;7.03;6.33;;;4.60;99.90;;;;;;5019283;28;20196;-65
2021/10/13 06:29:39;;;;;;;7.80;7.10;;;4.60;99.90;;;;;;5019975;28;20714;-65
2021/10/13 06:32:05;;;;;;;8.30;7.50;;;4.60;99.90;;;;;;5020325;28;20236;-66
2021/10/13 06:34:32;;;;;;;8.30;7.57;;;4.60;99.90;;;;;;5023769;28;20990;-65
2021/10/13 06:36:58;;;;;;;7.60;6.47;;;4.60;99.90;;;;;;5021894;28;20195;-65
2021/10/13 06:39:23;;;;;;;8.90;6.90;;;4.60;99.90;;;;;;5022366;28;20977;-65
2021/10/13 06:41:49;;;;;;;8.80;7.13;;;4.60;99.90;;;;;;5020708;28;20250;-65
2021/10/13 06:44:15;;;;;;;7.50;6.80;;;4.70;99.90;;;;;;5018304;28;20252;-66
2021/10/13 06:46:41;;;;;;;8.43;7.53;;;4.70;99.90;;;;;;5023329;28;20185;-65
2021/10/13 06:49:07;;;;;;;7.70;7.00;;;4.70;99.90;;;;;;5021514;28;20215;-65
2021/10/13 06:51:32;;;;;;;8.00;7.10;;;4.70;99.90;;;;;;5024401;28;20628;-65
2021/10/13 06:53:58;;;;;;;8.27;7.40;;;4.70;99.90;;;;;;5024260;28;20615;-65
2021/10/13 06:56:27;;;;;;;8.40;7.60;;;4.70;99.90;;;;;;5026784;28;20201;-65
2021/10/13 06:58:55;;;;;;;8.57;7.70;;;4.80;99.90;;;;;;5023276;28;20190;-65
2021/10/13 07:01:20;;;;;;;8.50;7.70;;;4.80;99.90;;;;;;5022308;28;20627;-65
2021/10/13 07:03:46;;;;;;;8.70;7.90;;;4.90;99.90;;;;;;5024092;28;21207;-65
2021/10/13 07:06:12;;;;;;;8.53;7.70;;;5.10;99.90;;;;;;5025025;28;20658;-66
2021/10/13 07:08:38;;;;;;;9.10;7.87;;;5.40;99.90;;;;;;5020517;28;20181;-66
2021/10/13 07:11:06;;;;;;;11.00;6.93;;;5.70;99.90;;;;;;5023621;28;20627;-66
2021/10/13 07:13:31;;;;;;;9.20;8.30;;;5.80;99.90;;;;;;5022757;28;20224;-66
2021/10/13 07:15:59;;;;;;;8.30;7.30;;;5.90;99.90;;;;;;5023686;28;20638;-65
2021/10/13 07:18:25;;;;;;;9.40;7.90;;;5.90;99.90;;;;;;5022100;28;20615;-65
2021/10/13 07:20:53;;;;;;;9.20;8.00;;;6.00;99.90;;;;;;5023216;28;20627;-65
2021/10/13 07:23:18;;;;;;;8.47;7.67;;;6.00;99.90;;;;;;5021539;28;20723;-65
2021/10/13 07:25:44;;;;;;;7.97;7.20;;;6.10;99.90;;;;;;5022174;28;20587;-66
2021/10/13 07:28:13;;;;;;;9.97;8.80;;;6.20;99.90;;;;;;5022059;28;20219;-66
2021/10/13 07:30:41;;;;;;;9.10;8.30;;;6.20;99.90;;;;;;5023482;28;20223;-65
2021/10/13 07:33:07;;;;;;;9.17;8.37;;;6.30;99.90;;;;;;5022307;28;20614;-66
2021/10/13 07:35:36;;;;;;;11.77;9.93;;;6.40;99.90;;;;;;5021095;28;20635;-65
2021/10/13 07:38:04;;;;;;;8.40;7.63;;;6.50;99.90;;;;;;5021770;28;20212;-66
2021/10/13 07:40:32;;;;;;;11.87;9.70;;;6.60;99.90;;;;;;5024937;28;20607;-65
2021/10/13 07:43:01;;;;;;;9.40;8.40;;;6.70;99.90;;;;;;5021870;28;21086;-66
2021/10/13 07:45:26;;;;;;;9.60;8.70;;;6.80;99.90;;;;;;5021356;28;20604;-66
2021/10/13 07:47:52;;;;;;;9.47;8.57;;;6.80;99.90;;;;;;5022231;28;20616;-65
2021/10/13 07:50:17;;;;;;;9.50;8.00;;;6.90;99.90;;;;;;5020387;28;20181;-65
2021/10/13 07:52:43;;;;;;;10.00;8.33;;;7.00;99.90;;;;;;5023383;28;20203;-66
2021/10/13 07:55:11;;;;;;;9.60;8.17;;;7.00;99.90;;;;;;5021093;28;20245;-65
2021/10/13 07:57:37;;;;;;;8.60;7.70;;;7.10;99.90;;;;;;5021567;28;20212;-65
2021/10/13 08:00:07;;;;;;;8.93;8.13;;;7.10;99.90;;;;;;5021951;28;20615;-66
2021/10/13 08:02:32;;;;;;;9.83;7.33;;;7.10;99.90;;;;;;5021873;28;20220;-66
2021/10/13 08:04:58;;;;;;;9.13;7.40;;;7.20;99.90;;;;;;5022329;28;20616;-65
2021/10/13 08:07:24;;;;;;;8.70;7.90;;;7.30;99.90;;;;;;5023910;28;20653;-66
2021/10/13 08:09:49;;;;;;;8.30;6.67;;;7.40;99.90;;;;;;5021855;28;20188;-66
2021/10/13 08:12:18;;;;;;;8.30;7.10;;;7.50;99.90;;;;;;5029012;28;20216;-66
2021/10/13 08:14:49;;;;;;;6.73;6.07;;;7.50;99.90;;;;;;5022770;28;20216;-66
2021/10/13 08:17:17;;;;;;;7.30;6.60;;;7.60;99.90;;;;;;5021665;28;20577;-65
2021/10/13 08:19:42;;;;;;;8.70;7.50;;;7.70;99.90;;;;;;5026059;28;20610;-66
2021/10/13 08:22:08;;;;;;;9.33;7.43;;;7.80;99.90;;;;;;5024549;28;20643;-65
2021/10/13 08:24:34;;;;;;;8.47;6.73;;;8.00;99.90;;;;;;5023248;28;20249;-66
2021/10/13 08:27:02;;;;;;;7.60;6.90;;;8.00;99.90;;;;;;5022680;28;20660;-66
2021/10/13 08:29:30;;;;;;;9.63;7.60;;;8.20;99.90;;;;;;5023767;28;20630;-66
2021/10/13 08:31:55;;;;;;;7.73;6.93;;;8.20;99.90;;;;;;5023359;28;20635;-66
2021/10/13 08:34:23;;;;;;;10.70;7.50;;;8.40;99.90;;;;;;5020381;28;20730;-65
2021/10/13 08:36:51;;;;;;;7.67;6.97;;;8.50;99.90;;;;;;5021278;28;20220;-67
2021/10/13 08:39:17;;;;;;;7.83;6.30;;;8.70;99.90;;;;;;5022576;28;20600;-66
2021/10/13 08:41:45;;;;;;;9.30;5.60;;;8.80;99.90;;;;;;5022559;28;20637;-65
2021/10/13 08:44:17;;;;;;;6.20;5.60;;;8.90;99.90;;;;;;5021399;28;20244;-65
2021/10/13 08:46:43;;;;;;;6.47;5.87;;;9.00;99.90;;;;;;5022511;28;21244;-65
2021/10/13 08:49:12;;;;;;;6.87;6.27;;;9.20;99.90;;;;;;5024013;28;21020;-65
2021/10/13 08:51:40;;;;;;;6.43;5.83;;;9.30;99.90;;;;;;5021739;28;20646;-66
2021/10/13 08:54:14;;;;;;;5.50;4.87;;;9.40;99.90;;;;;;5021470;28;20627;-65
2021/10/13 08:56:41;;;;;;;5.20;4.70;;;9.60;99.90;;;;;;5020938;28;20652;-65
2021/10/13 08:59:06;;;;;;;7.60;5.00;;;9.70;99.90;;;;;;5022203;28;20608;-65
2021/10/13 09:01:32;;;;;;;6.03;5.40;;;9.90;99.90;;;;;;5018387;28;20636;-65
2021/10/13 09:03:59;;;;;;;6.13;3.77;;;10.00;99.90;;;;;;5021399;28;20213;-66
2021/10/13 09:06:27;;;;;;;3.97;3.57;;;10.10;99.90;;;;;;5019829;28;20207;-66
2021/10/13 09:08:58;;;;;;;4.60;3.93;;;10.20;99.90;;;;;;5020682;28;20750;-65
2021/10/13 09:11:49;;;;;;;4.60;3.67;;;10.20;99.90;;;;;;5015424;28;20640;-66
2021/10/13 09:14:16;;;;;;;3.93;3.40;;;10.30;99.90;;;;;;5020991;28;20750;-65
2021/10/13 09:16:53;;;;;;;3.90;3.20;;;10.40;99.90;;;;;;5018299;28;20706;-66
2021/10/13 09:19:21;;;;;;;4.00;3.40;;;10.40;99.90;;;;;;5020015;28;20648;-65
2021/10/13 09:21:54;;;;;;;4.57;3.27;;;10.50;99.90;;;;;;5022136;28;20624;-66
2021/10/13 09:24:22;;;;;;;3.90;3.30;;;10.60;99.90;;;;;;5020414;28;20628;-66
2021/10/13 09:26:54;;;;;;;3.63;3.27;;;10.70;99.90;;;;;;5020055;28;20707;-66
2021/10/13 09:29:23;;;;;;;5.40;3.70;;;10.70;99.90;;;;;;5021394;28;20608;-65
2021/10/13 09:32:00;;;;;;;5.70;4.03;;;10.80;99.90;;;;;;5020791;28;20640;-66
2021/10/13 09:34:28;;;;;;;4.90;3.90;;;10.80;99.90;;;;;;5019133;28;20658;-65
2021/10/13 09:36:59;;;;;;;4.87;3.10;;;10.90;99.90;;;;;;5020514;28;20652;-65
2021/10/13 09:39:26;;;;;;;5.07;3.60;;;11.00;99.90;;;;;;5021380;28;20653;-66
2021/10/13 09:42:06;;;;;;;4.50;3.00;;;11.10;99.90;;;;;;5019633;28;20633;-66
2021/10/13 09:44:35;;;;;;;4.70;3.00;;;11.20;99.90;;;;;;5019670;28;20674;-66
2021/10/13 09:47:06;;;;;;;4.90;2.70;;;11.30;99.90;;;;;;5019734;28;20604;-66
2021/10/13 09:49:42;;;;;;;3.57;2.90;;;11.30;99.90;;;;;;5019999;28;20618;-67
2021/10/13 09:52:15;;;;;;;3.33;2.57;;;11.30;99.90;;;;;;5019434;28;20682;-67
2021/10/13 09:54:44;;;;;;;4.43;3.13;;;11.30;99.90;;;;;;5019322;28;20647;-66
2021/10/13 09:57:39;;;;;;;4.63;2.93;;;11.30;99.90;;;;;;5020702;28;20618;-67
2021/10/13 10:00:08;;;;;;;4.10;3.20;;;11.40;99.90;;;;;;5020518;28;21198;-67
2021/10/13 10:02:44;;;;;;;3.20;2.90;;;11.40;99.90;;;;;;5019578;28;20631;-66
2021/10/13 10:05:12;;;;;;;6.10;3.40;;;11.40;99.90;;;;;;5018091;28;21013;-66
2021/10/13 10:07:42;;;;;;;5.80;3.27;;;11.40;99.90;;;;;;5020993;28;20641;-65
2021/10/13 10:10:20;;;;;;;3.77;3.07;;;11.50;99.90;;;;;;5020070;28;20673;-66
2021/10/13 10:13:05;;;;;;;4.90;3.20;;;11.50;99.90;;;;;;5018902;28;20722;-66
2021/10/13 10:15:44;;;;;;;3.57;3.23;;;11.60;99.90;;;;;;5019879;28;20750;-65
2021/10/13 10:18:32;;;;;;;5.13;3.27;;;11.70;99.90;;;;;;5019911;28;21202;-65
2021/10/13 10:21:21;;;;;;;3.47;3.17;;;11.70;99.90;;;;;;5018511;28;21206;-65
2021/10/13 10:23:57;;;;;;;3.37;3.07;;;11.80;99.90;;;;;;5019259;28;20655;-65
2021/10/13 10:26:25;;;;;;;6.60;3.30;;;11.80;99.90;;;;;;5020107;28;20631;-65
2021/10/13 10:28:57;;;;;;;4.47;3.23;;;11.90;99.90;;;;;;5020498;28;20630;-65
2021/10/13 10:31:28;;;;;;;4.33;2.80;;;11.90;99.90;;;;;;5017473;28;20702;-66
2021/10/13 10:34:06;;;;;;;3.50;3.20;;;12.00;99.90;;;;;;5019386;28;21049;-66
2021/10/13 10:36:34;;;;;;;4.13;3.40;;;12.00;99.90;;;;;;5021039;28;20679;-66
2021/10/13 10:39:03;;;;;;;5.20;3.50;;;12.10;99.90;;;;;;5020317;28;20595;-68
2021/10/13 10:41:55;;;;;;;4.00;3.10;;;12.20;99.90;;;;;;5018843;28;20643;-66
2021/10/13 10:44:30;;;;;;;3.80;3.00;;;12.20;99.90;;;;;;5018767;28;20632;-67
2021/10/13 10:47:06;;;;;;;3.60;3.30;;;12.20;99.90;;;;;;5018283;28;20607;-65
2021/10/13 10:49:55;;;;;;;4.10;2.90;;;12.30;99.90;;;;;;5017713;28;20702;-66
2021/10/13 10:52:22;;;;;;;3.53;3.20;;;12.30;99.90;;;;;;5025438;28;21055;-66
2021/10/13 10:54:58;;;;;;;5.47;3.43;;;12.40;99.90;;;;;;5024726;28;20624;-66
2021/10/13 10:57:41;;;;;;;3.70;3.40;;;12.40;99.90;;;;;;5018543;28;21109;-67
2021/10/13 11:00:09;;;;;;;4.60;3.50;;;12.50;99.90;;;;;;5020761;28;20630;-65
2021/10/13 11:02:39;;;;;;;4.43;3.23;;;12.60;99.90;;;;;;5018136;28;20654;-66
2021/10/13 11:05:08;;;;;;;4.30;3.10;;;12.70;99.90;;;;;;5019127;28;20664;-66
2021/10/13 11:07:41;;;;;;;3.50;3.00;;;12.80;99.90;;;;;;5018222;28;21167;-66
2021/10/13 11:10:09;;;;;;;4.00;3.40;;;13.00;99.90;;;;;;5020228;28;20603;-66
2021/10/13 11:12:59;;;;;;;3.10;2.90;;;13.00;99.90;;;;;;5023432;28;20750;-67
2021/10/13 11:15:30;;;;;;;4.43;2.83;;;13.10;99.90;;;;;;5019333;28;20656;-66
2021/10/13 11:17:58;;;;;;;4.90;3.03;;;13.20;99.90;;;;;;5018729;28;21158;-66
2021/10/13 11:20:26;;;;;;;4.17;3.00;;;13.30;99.90;;;;;;5020220;28;20665;-66
2021/10/13 11:23:03;;;;;;;4.33;2.60;;;13.40;99.90;;;;;;5016440;28;20623;-67
2021/10/13 11:25:30;;;;;;;3.03;2.73;;;13.50;99.90;;;;;;5018752;28;20638;-66
2021/10/13 11:28:09;;;;;;;4.90;2.83;;;13.50;99.90;;;;;;5018277;28;20619;-66
2021/10/13 11:30:46;;;;;;;3.40;2.33;;;13.60;99.90;;;;;;5018187;28;20645;-66
2021/10/13 11:33:22;;;;;;;3.50;2.20;;;13.60;99.90;;;;;;5022403;28;21261;-67
2021/10/13 11:35:51;;;;;;;5.77;2.83;;;13.60;99.90;;;;;;5029519;28;20639;-66
2021/10/13 11:38:19;;;;;;;5.30;2.60;;;13.60;99.90;;;;;;5022268;28;20682;-65
2021/10/13 11:40:47;;;;;;;1.97;1.80;;;13.60;99.90;;;;;;5022994;28;20967;-65
2021/10/13 11:43:17;;;;;;;3.50;1.90;;;13.70;99.90;;;;;;5027193;28;20623;-66
2021/10/13 11:45:52;;;;;;;3.93;2.27;;;13.90;99.90;;;;;;5023276;28;20730;-65
2021/10/13 11:48:28;;;;;;;4.43;2.30;;;14.20;99.90;;;;;;5021648;28;20633;-66
2021/10/13 11:50:58;;;;;;;3.07;1.43;;;14.60;99.90;;;;;;5022551;28;21050;-66
2021/10/13 11:53:27;;;;;;;3.27;1.80;;;15.10;99.90;;;;;;5021366;28;21382;-66
2021/10/13 11:55:53;;;;;;;6.20;1.90;;;15.80;99.90;;;;;;5022060;28;20639;-65
2021/10/13 11:58:30;;;;;;;3.53;1.67;;;16.20;99.90;;;;;;5021026;28;20682;-66
2021/10/13 12:00:57;;;;;;;3.53;1.70;;;16.60;99.90;;;;;;5023089;28;20618;-66
2021/10/13 12:03:32;;;;;;;2.80;1.30;;;16.70;99.90;;;;;;5020682;28;20632;-66
2021/10/13 12:05:59;;;;;;;2.27;1.53;;;16.50;99.90;;;;;;5022643;28;20665;-65
2021/10/13 12:08:43;;;;;;;3.93;1.47;;;16.20;99.90;;;;;;5021704;28;20635;-66
2021/10/13 12:11:14;;;;;;;3.40;1.50;;;16.00;99.90;;;;;;5022250;28;20647;-66
2021/10/13 12:13:41;;;;;;;3.47;1.20;;;15.80;99.90;;;;;;5018140;28;20731;-65
2021/10/13 12:16:11;;;;;;;9.73;1.67;;;15.60;99.90;;;;;;5022226;28;20765;-67
2021/10/13 12:18:40;;;;;;;5.53;1.87;;;15.40;99.90;;;;;;5022353;28;20997;-66
2021/10/13 12:21:13;;;;;;;4.20;1.70;;;15.10;99.90;;;;;;5022892;28;20644;-66
2021/10/13 12:23:48;;;;;;;4.00;1.43;;;15.00;99.90;;;;;;5020668;28;21187;-66
2021/10/13 12:26:16;;;;;;;6.07;2.10;;;14.80;99.90;;;;;;5028326;28;20615;-66
2021/10/13 12:28:52;;;;;;;6.90;1.80;;;14.60;99.90;;;;;;5022278;28;21097;-67
2021/10/13 12:31:24;;;;;;;4.73;1.60;;;14.50;99.90;;;;;;5021083;28;21009;-67
2021/10/13 12:34:04;;;;;;;5.63;1.47;;;14.30;99.90;;;;;;5021142;28;20693;-66
2021/10/13 12:36:41;;;;;;;6.00;1.57;;;14.20;99.90;;;;;;5022519;28;20724;-66
2021/10/13 12:39:11;;;;;;;3.80;1.30;;;14.10;99.90;;;;;;5021757;28;20611;-66
2021/10/13 12:41:43;;;;;;;2.67;1.73;;;14.10;99.90;;;;;;5021387;28;20658;-66
2021/10/13 12:44:23;;;;;;;3.47;1.57;;;14.00;99.90;;;;;;5021085;28;20623;-66
2021/10/13 12:47:04;;;;;;;5.10;1.80;;;13.90;99.90;;;;;;5021970;28;20623;-67
2021/10/13 12:49:45;;;;;;;3.10;1.10;;;14.00;99.90;;;;;;5019449;28;20587;-66
2021/10/13 12:52:20;;;;;;;3.60;1.60;;;14.00;99.90;;;;;;5021227;28;21299;-66
2021/10/13 12:54:48;;;;;;;3.33;1.47;;;13.90;99.90;;;;;;5021124;28;21196;-66
2021/10/13 12:57:16;;;;;;;3.03;1.37;;;13.90;99.90;;;;;;5017708;28;20611;-67
2021/10/13 12:59:42;;;;;;;4.40;1.30;;;13.90;99.90;;;;;;5021374;28;20599;-66
2021/10/13 13:02:10;;;;;;;5.23;1.80;;;13.90;99.90;;;;;;5021227;28;21225;-66
2021/10/13 13:04:39;;;;;;;2.50;1.50;;;13.90;99.90;;;;;;5020036;28;20771;-65
2021/10/13 13:07:06;;;;;;;3.10;1.60;;;13.90;99.90;;;;;;5018782;28;20754;-65